sensor_id;sensor_type;location;lat;lon;timestamp;P1;durP1;ratioP1;P2;durP2;ratioP2
1206;SDS011;593;53.184;8.216;2023-07-29T00:01:43;5.87;;;5.27;;
1206;SDS011;593;53.184;8.216;2023-07-29T00:04:08;4.27;;;3.87;;
1206;SDS011;593;53.184;8.216;2023-07-29T00:06:34;5.63;;;4.77;;
1206;SDS011;593;53.184;8.216;2023-07-29T00:09:00;5.17;;;4.67;;
1206;SDS011;593;53.184;8.216;2023-07-29T00:11:25;6.20;;;5.50;;
1206;SDS011;593;53.184;8.216;2023-07-29T00:13:51;5.13;;;4.50;;
1206;SDS011;593;53.184;8.216;2023-07-29T00:16:17;7.40;;;4.87;;
1206;SDS011;593;53.184;8.216;2023-07-29T00:18:43;4.83;;;4.43;;
1206;SDS011;593;53.184;8.216;2023-07-29T00:21:09;7.07;;;5.60;;
1206;SDS011;593;53.184;8.216;2023-07-29T00:23:34;5.40;;;4.90;;
1206;SDS011;593;53.184;8.216;2023-07-29T00:25:59;5.23;;;4.70;;
1206;SDS011;593;53.184;8.216;2023-07-29T00:28:25;6.40;;;5.37;;
1206;SDS011;593;53.184;8.216;2023-07-29T00:30:50;6.37;;;5.63;;
1206;SDS011;593;53.184;8.216;2023-07-29T00:33:15;6.23;;;5.63;;
1206;SDS011;593;53.184;8.216;2023-07-29T00:35:41;5.50;;;4.70;;
1206;SDS011;593;53.184;8.216;2023-07-29T00:38:06;7.40;;;4.47;;
1206;SDS011;593;53.184;8.216;2023-07-29T00:40:35;4.00;;;3.60;;
1206;SDS011;593;53.184;8.216;2023-07-29T00:43:02;4.40;;;4.00;;
1206;SDS011;593;53.184;8.216;2023-07-29T00:45:27;4.60;;;4.20;;
1206;SDS011;593;53.184;8.216;2023-07-29T00:47:54;5.77;;;4.60;;
1206;SDS011;593;53.184;8.216;2023-07-29T00:50:19;4.37;;;3.70;;
1206;SDS011;593;53.184;8.216;2023-07-29T00:52:45;5.13;;;4.63;;
1206;SDS011;593;53.184;8.216;2023-07-29T00:55:10;4.47;;;4.07;;
1206;SDS011;593;53.184;8.216;2023-07-29T00:57:36;5.83;;;5.33;;
1206;SDS011;593;53.184;8.216;2023-07-29T01:00:02;8.37;;;5.60;;
1206;SDS011;593;53.184;8.216;2023-07-29T01:02:29;5.40;;;4.90;;
1206;SDS011;593;53.184;8.216;2023-07-29T01:04:57;4.93;;;4.20;;
1206;SDS011;593;53.184;8.216;2023-07-29T01:10:02;5.53;;;5.03;;
1206;SDS011;593;53.184;8.216;2023-07-29T01:17:57;5.03;;;4.10;;
1206;SDS011;593;53.184;8.216;2023-07-29T01:20:29;4.43;;;3.63;;
1206;SDS011;593;53.184;8.216;2023-07-29T01:22:57;3.67;;;3.37;;
1206;SDS011;593;53.184;8.216;2023-07-29T01:25:22;3.73;;;3.33;;
1206;SDS011;593;53.184;8.216;2023-07-29T01:27:48;5.50;;;3.97;;
1206;SDS011;593;53.184;8.216;2023-07-29T01:30:16;4.27;;;3.60;;
1206;SDS011;593;53.184;8.216;2023-07-29T01:37:49;4.23;;;3.93;;
1206;SDS011;593;53.184;8.216;2023-07-29T01:40:18;4.43;;;4.03;;
1206;SDS011;593;53.184;8.216;2023-07-29T01:42:44;4.87;;;4.47;;
1206;SDS011;593;53.184;8.216;2023-07-29T01:45:11;6.00;;;4.87;;
1206;SDS011;593;53.184;8.216;2023-07-29T01:47:36;6.50;;;5.27;;
1206;SDS011;593;53.184;8.216;2023-07-29T01:50:05;7.50;;;5.63;;
1206;SDS011;593;53.184;8.216;2023-07-29T01:52:31;5.67;;;5.10;;
1206;SDS011;593;53.184;8.216;2023-07-29T01:54:56;5.90;;;5.17;;
1206;SDS011;593;53.184;8.216;2023-07-29T01:57:22;7.63;;;5.03;;
1206;SDS011;593;53.184;8.216;2023-07-29T01:59:47;5.20;;;4.70;;
1206;SDS011;593;53.184;8.216;2023-07-29T02:02:12;7.73;;;6.60;;
1206;SDS011;593;53.184;8.216;2023-07-29T02:04:38;5.67;;;5.07;;
1206;SDS011;593;53.184;8.216;2023-07-29T02:07:03;5.80;;;5.20;;
1206;SDS011;593;53.184;8.216;2023-07-29T02:09:29;4.67;;;3.90;;
1206;SDS011;593;53.184;8.216;2023-07-29T02:11:55;8.17;;;5.00;;
1206;SDS011;593;53.184;8.216;2023-07-29T02:14:21;5.57;;;4.30;;
1206;SDS011;593;53.184;8.216;2023-07-29T02:16:46;7.23;;;4.73;;
1206;SDS011;593;53.184;8.216;2023-07-29T02:19:12;6.87;;;5.00;;
1206;SDS011;593;53.184;8.216;2023-07-29T02:21:37;7.97;;;6.00;;
1206;SDS011;593;53.184;8.216;2023-07-29T02:24:03;6.30;;;5.67;;
1206;SDS011;593;53.184;8.216;2023-07-29T02:26:28;7.97;;;6.27;;
1206;SDS011;593;53.184;8.216;2023-07-29T02:28:53;7.40;;;6.13;;
1206;SDS011;593;53.184;8.216;2023-07-29T02:31:22;6.77;;;5.80;;
1206;SDS011;593;53.184;8.216;2023-07-29T02:33:49;10.67;;;6.73;;
1206;SDS011;593;53.184;8.216;2023-07-29T02:36:15;6.50;;;5.90;;
1206;SDS011;593;53.184;8.216;2023-07-29T02:38:41;6.97;;;6.07;;
1206;SDS011;593;53.184;8.216;2023-07-29T02:41:07;6.57;;;5.97;;
1206;SDS011;593;53.184;8.216;2023-07-29T02:43:34;7.00;;;6.30;;
1206;SDS011;593;53.184;8.216;2023-07-29T02:46:01;8.13;;;6.73;;
1206;SDS011;593;53.184;8.216;2023-07-29T02:48:26;10.27;;;7.30;;
1206;SDS011;593;53.184;8.216;2023-07-29T02:50:53;8.23;;;7.40;;
1206;SDS011;593;53.184;8.216;2023-07-29T02:53:18;8.57;;;6.57;;
1206;SDS011;593;53.184;8.216;2023-07-29T02:55:44;8.27;;;7.47;;
1206;SDS011;593;53.184;8.216;2023-07-29T02:58:09;8.43;;;7.40;;
1206;SDS011;593;53.184;8.216;2023-07-29T03:00:34;9.00;;;7.20;;
1206;SDS011;593;53.184;8.216;2023-07-29T03:03:00;7.03;;;6.33;;
1206;SDS011;593;53.184;8.216;2023-07-29T03:05:29;8.70;;;7.80;;
1206;SDS011;593;53.184;8.216;2023-07-29T03:07:54;8.37;;;7.57;;
1206;SDS011;593;53.184;8.216;2023-07-29T03:10:20;9.30;;;8.40;;
1206;SDS011;593;53.184;8.216;2023-07-29T03:12:45;9.50;;;8.30;;
1206;SDS011;593;53.184;8.216;2023-07-29T03:15:11;9.03;;;8.13;;
1206;SDS011;593;53.184;8.216;2023-07-29T03:17:36;8.80;;;7.90;;
1206;SDS011;593;53.184;8.216;2023-07-29T03:20:02;9.10;;;7.67;;
1206;SDS011;593;53.184;8.216;2023-07-29T03:22:27;8.83;;;8.03;;
1206;SDS011;593;53.184;8.216;2023-07-29T03:24:53;9.73;;;8.73;;
1206;SDS011;593;53.184;8.216;2023-07-29T03:27:18;9.43;;;8.53;;
1206;SDS011;593;53.184;8.216;2023-07-29T03:29:43;10.30;;;8.60;;
1206;SDS011;593;53.184;8.216;2023-07-29T03:32:09;9.50;;;8.50;;
1206;SDS011;593;53.184;8.216;2023-07-29T03:34:34;9.93;;;9.03;;
1206;SDS011;593;53.184;8.216;2023-07-29T03:37:00;9.70;;;8.80;;
1206;SDS011;593;53.184;8.216;2023-07-29T03:39:26;11.20;;;10.10;;
1206;SDS011;593;53.184;8.216;2023-07-29T03:41:51;10.07;;;9.07;;
1206;SDS011;593;53.184;8.216;2023-07-29T03:44:17;11.87;;;10.77;;
1206;SDS011;593;53.184;8.216;2023-07-29T03:46:43;10.40;;;9.50;;
1206;SDS011;593;53.184;8.216;2023-07-29T03:49:09;11.10;;;9.93;;
1206;SDS011;593;53.184;8.216;2023-07-29T03:51:34;10.17;;;8.97;;
1206;SDS011;593;53.184;8.216;2023-07-29T03:54:00;10.00;;;8.70;;
1206;SDS011;593;53.184;8.216;2023-07-29T03:56:25;10.97;;;9.97;;
1206;SDS011;593;53.184;8.216;2023-07-29T03:58:52;11.53;;;10.43;;
1206;SDS011;593;53.184;8.216;2023-07-29T04:01:18;11.33;;;10.23;;
1206;SDS011;593;53.184;8.216;2023-07-29T04:03:44;11.60;;;10.33;;
1206;SDS011;593;53.184;8.216;2023-07-29T04:06:11;10.40;;;9.40;;
1206;SDS011;593;53.184;8.216;2023-07-29T04:08:36;12.70;;;10.70;;
1206;SDS011;593;53.184;8.216;2023-07-29T04:11:01;11.80;;;10.67;;
1206;SDS011;593;53.184;8.216;2023-07-29T04:13:27;10.20;;;9.20;;
1206;SDS011;593;53.184;8.216;2023-07-29T04:15:52;11.30;;;10.20;;
1206;SDS011;593;53.184;8.216;2023-07-29T04:18:17;11.80;;;10.57;;
1206;SDS011;593;53.184;8.216;2023-07-29T04:20:43;10.97;;;9.97;;
1206;SDS011;593;53.184;8.216;2023-07-29T04:23:08;11.87;;;10.67;;
1206;SDS011;593;53.184;8.216;2023-07-29T04:25:34;12.80;;;10.57;;
1206;SDS011;593;53.184;8.216;2023-07-29T04:27:59;11.67;;;10.47;;
1206;SDS011;593;53.184;8.216;2023-07-29T04:30:24;12.10;;;10.43;;
1206;SDS011;593;53.184;8.216;2023-07-29T04:32:50;10.90;;;9.90;;
1206;SDS011;593;53.184;8.216;2023-07-29T04:35:15;12.73;;;11.17;;
1206;SDS011;593;53.184;8.216;2023-07-29T04:37:41;12.00;;;10.80;;
1206;SDS011;593;53.184;8.216;2023-07-29T04:40:06;11.80;;;10.63;;
1206;SDS011;593;53.184;8.216;2023-07-29T04:42:32;12.17;;;11.07;;
1206;SDS011;593;53.184;8.216;2023-07-29T04:44:57;13.20;;;11.80;;
1206;SDS011;593;53.184;8.216;2023-07-29T04:47:23;12.40;;;11.20;;
1206;SDS011;593;53.184;8.216;2023-07-29T04:49:48;13.30;;;12.00;;
1206;SDS011;593;53.184;8.216;2023-07-29T04:52:13;12.90;;;11.60;;
1206;SDS011;593;53.184;8.216;2023-07-29T04:54:40;13.17;;;11.77;;
1206;SDS011;593;53.184;8.216;2023-07-29T04:57:05;16.40;;;13.13;;
1206;SDS011;593;53.184;8.216;2023-07-29T04:59:31;12.03;;;10.80;;
1206;SDS011;593;53.184;8.216;2023-07-29T05:01:56;13.40;;;12.00;;
1206;SDS011;593;53.184;8.216;2023-07-29T05:04:22;15.17;;;12.23;;
1206;SDS011;593;53.184;8.216;2023-07-29T05:06:48;14.40;;;11.60;;
1206;SDS011;593;53.184;8.216;2023-07-29T05:09:17;13.60;;;11.70;;
1206;SDS011;593;53.184;8.216;2023-07-29T05:11:43;15.43;;;12.20;;
1206;SDS011;593;53.184;8.216;2023-07-29T05:14:13;20.50;;;12.87;;
1206;SDS011;593;53.184;8.216;2023-07-29T05:16:39;14.93;;;12.77;;
1206;SDS011;593;53.184;8.216;2023-07-29T05:19:05;15.83;;;13.00;;
1206;SDS011;593;53.184;8.216;2023-07-29T05:21:30;14.80;;;12.53;;
1206;SDS011;593;53.184;8.216;2023-07-29T05:23:56;16.33;;;14.53;;
1206;SDS011;593;53.184;8.216;2023-07-29T05:26:21;13.37;;;11.87;;
1206;SDS011;593;53.184;8.216;2023-07-29T05:28:47;16.80;;;13.37;;
1206;SDS011;593;53.184;8.216;2023-07-29T05:31:13;12.77;;;11.30;;
1206;SDS011;593;53.184;8.216;2023-07-29T05:33:38;12.60;;;11.27;;
1206;SDS011;593;53.184;8.216;2023-07-29T05:36:03;13.53;;;11.87;;
1206;SDS011;593;53.184;8.216;2023-07-29T05:38:30;17.47;;;12.50;;
1206;SDS011;593;53.184;8.216;2023-07-29T05:40:55;13.50;;;11.20;;
1206;SDS011;593;53.184;8.216;2023-07-29T05:43:20;14.57;;;11.33;;
1206;SDS011;593;53.184;8.216;2023-07-29T05:45:46;12.20;;;10.90;;
1206;SDS011;593;53.184;8.216;2023-07-29T05:48:11;15.13;;;11.87;;
1206;SDS011;593;53.184;8.216;2023-07-29T05:50:40;13.37;;;11.93;;
1206;SDS011;593;53.184;8.216;2023-07-29T05:53:05;13.70;;;12.30;;
1206;SDS011;593;53.184;8.216;2023-07-29T05:55:30;13.63;;;11.83;;
1206;SDS011;593;53.184;8.216;2023-07-29T05:57:56;14.10;;;10.70;;
1206;SDS011;593;53.184;8.216;2023-07-29T06:00:22;13.87;;;10.87;;
1206;SDS011;593;53.184;8.216;2023-07-29T06:02:48;11.73;;;10.53;;
1206;SDS011;593;53.184;8.216;2023-07-29T06:05:13;12.00;;;10.70;;
1206;SDS011;593;53.184;8.216;2023-07-29T06:07:38;13.37;;;10.97;;
1206;SDS011;593;53.184;8.216;2023-07-29T06:10:09;12.83;;;10.60;;
1206;SDS011;593;53.184;8.216;2023-07-29T06:12:36;13.87;;;9.90;;
1206;SDS011;593;53.184;8.216;2023-07-29T06:15:02;12.90;;;10.37;;
1206;SDS011;593;53.184;8.216;2023-07-29T06:17:28;11.73;;;10.43;;
1206;SDS011;593;53.184;8.216;2023-07-29T06:19:54;11.47;;;10.27;;
1206;SDS011;593;53.184;8.216;2023-07-29T06:22:19;9.93;;;9.03;;
1206;SDS011;593;53.184;8.216;2023-07-29T06:24:44;11.60;;;9.37;;
1206;SDS011;593;53.184;8.216;2023-07-29T06:27:10;10.17;;;9.10;;
1206;SDS011;593;53.184;8.216;2023-07-29T06:29:35;10.70;;;9.33;;
1206;SDS011;593;53.184;8.216;2023-07-29T06:32:00;9.47;;;8.47;;
1206;SDS011;593;53.184;8.216;2023-07-29T06:34:26;11.13;;;9.40;;
1206;SDS011;593;53.184;8.216;2023-07-29T06:36:54;10.20;;;8.57;;
1206;SDS011;593;53.184;8.216;2023-07-29T06:39:19;11.43;;;9.40;;
1206;SDS011;593;53.184;8.216;2023-07-29T06:41:45;9.10;;;7.70;;
1206;SDS011;593;53.184;8.216;2023-07-29T06:44:10;9.97;;;8.47;;
1206;SDS011;593;53.184;8.216;2023-07-29T06:46:36;8.90;;;8.00;;
1206;SDS011;593;53.184;8.216;2023-07-29T06:49:01;10.57;;;8.63;;
1206;SDS011;593;53.184;8.216;2023-07-29T06:51:27;7.80;;;7.00;;
1206;SDS011;593;53.184;8.216;2023-07-29T06:53:54;8.37;;;7.23;;
1206;SDS011;593;53.184;8.216;2023-07-29T06:56:19;7.63;;;6.93;;
1206;SDS011;593;53.184;8.216;2023-07-29T06:58:45;6.80;;;6.10;;
1206;SDS011;593;53.184;8.216;2023-07-29T07:01:10;8.83;;;7.00;;
1206;SDS011;593;53.184;8.216;2023-07-29T07:03:38;6.90;;;6.27;;
1206;SDS011;593;53.184;8.216;2023-07-29T07:06:04;8.50;;;6.57;;
1206;SDS011;593;53.184;8.216;2023-07-29T07:08:30;7.00;;;5.67;;
1206;SDS011;593;53.184;8.216;2023-07-29T07:10:56;6.53;;;5.93;;
1206;SDS011;593;53.184;8.216;2023-07-29T07:13:21;7.20;;;6.50;;
1206;SDS011;593;53.184;8.216;2023-07-29T07:15:47;6.47;;;5.37;;
1206;SDS011;593;53.184;8.216;2023-07-29T07:18:12;5.90;;;5.30;;
1206;SDS011;593;53.184;8.216;2023-07-29T07:20:38;5.00;;;4.60;;
1206;SDS011;593;53.184;8.216;2023-07-29T07:23:03;6.37;;;5.40;;
1206;SDS011;593;53.184;8.216;2023-07-29T07:25:30;4.80;;;4.20;;
1206;SDS011;593;53.184;8.216;2023-07-29T07:27:56;5.00;;;3.60;;
1206;SDS011;593;53.184;8.216;2023-07-29T07:30:21;4.50;;;4.10;;
1206;SDS011;593;53.184;8.216;2023-07-29T07:32:47;4.80;;;3.93;;
1206;SDS011;593;53.184;8.216;2023-07-29T07:35:12;4.90;;;4.33;;
1206;SDS011;593;53.184;8.216;2023-07-29T07:37:37;3.90;;;3.53;;
1206;SDS011;593;53.184;8.216;2023-07-29T07:40:03;4.97;;;4.37;;
1206;SDS011;593;53.184;8.216;2023-07-29T07:42:29;6.20;;;4.47;;
1206;SDS011;593;53.184;8.216;2023-07-29T07:44:54;6.07;;;4.07;;
1206;SDS011;593;53.184;8.216;2023-07-29T07:47:20;6.03;;;3.83;;
1206;SDS011;593;53.184;8.216;2023-07-29T07:49:45;3.63;;;3.33;;
1206;SDS011;593;53.184;8.216;2023-07-29T07:52:10;5.43;;;4.20;;
1206;SDS011;593;53.184;8.216;2023-07-29T07:54:36;6.93;;;4.80;;
1206;SDS011;593;53.184;8.216;2023-07-29T07:57:01;3.33;;;3.03;;
1206;SDS011;593;53.184;8.216;2023-07-29T07:59:26;6.60;;;3.60;;
1206;SDS011;593;53.184;8.216;2023-07-29T08:01:51;4.07;;;3.23;;
1206;SDS011;593;53.184;8.216;2023-07-29T08:04:17;5.00;;;2.67;;
1206;SDS011;593;53.184;8.216;2023-07-29T08:06:42;3.67;;;3.13;;
1206;SDS011;593;53.184;8.216;2023-07-29T08:09:08;4.30;;;2.30;;
1206;SDS011;593;53.184;8.216;2023-07-29T08:11:33;3.00;;;2.80;;
1206;SDS011;593;53.184;8.216;2023-07-29T08:13:58;4.03;;;2.90;;
1206;SDS011;593;53.184;8.216;2023-07-29T08:16:24;2.50;;;2.30;;
1206;SDS011;593;53.184;8.216;2023-07-29T08:18:49;3.70;;;3.40;;
1206;SDS011;593;53.184;8.216;2023-07-29T08:21:15;1.83;;;1.73;;
1206;SDS011;593;53.184;8.216;2023-07-29T08:23:40;2.50;;;2.20;;
1206;SDS011;593;53.184;8.216;2023-07-29T08:26:05;2.90;;;2.70;;
1206;SDS011;593;53.184;8.216;2023-07-29T08:28:32;2.43;;;2.23;;
1206;SDS011;593;53.184;8.216;2023-07-29T08:30:59;2.57;;;2.30;;
1206;SDS011;593;53.184;8.216;2023-07-29T08:33:24;2.13;;;1.97;;
1206;SDS011;593;53.184;8.216;2023-07-29T08:35:50;2.33;;;2.23;;
1206;SDS011;593;53.184;8.216;2023-07-29T08:38:16;2.13;;;2.03;;
1206;SDS011;593;53.184;8.216;2023-07-29T08:43:31;1.73;;;1.60;;
1206;SDS011;593;53.184;8.216;2023-07-29T08:45:58;3.00;;;2.60;;
1206;SDS011;593;53.184;8.216;2023-07-29T08:48:28;2.40;;;1.93;;
1206;SDS011;593;53.184;8.216;2023-07-29T08:50:58;1.87;;;1.77;;
1206;SDS011;593;53.184;8.216;2023-07-29T08:53:24;2.70;;;2.40;;
1206;SDS011;593;53.184;8.216;2023-07-29T08:55:50;2.50;;;2.03;;
1206;SDS011;593;53.184;8.216;2023-07-29T08:58:18;2.40;;;2.17;;
1206;SDS011;593;53.184;8.216;2023-07-29T09:00:44;2.40;;;2.30;;
1206;SDS011;593;53.184;8.216;2023-07-29T09:03:11;3.43;;;2.40;;
1206;SDS011;593;53.184;8.216;2023-07-29T09:05:36;3.63;;;3.33;;
1206;SDS011;593;53.184;8.216;2023-07-29T09:08:02;3.40;;;3.10;;
1206;SDS011;593;53.184;8.216;2023-07-29T09:10:29;3.13;;;2.93;;
1206;SDS011;593;53.184;8.216;2023-07-29T09:12:54;5.53;;;3.57;;
1206;SDS011;593;53.184;8.216;2023-07-29T09:15:29;4.00;;;3.60;;
1206;SDS011;593;53.184;8.216;2023-07-29T09:17:56;4.27;;;3.30;;
1206;SDS011;593;53.184;8.216;2023-07-29T09:20:26;3.10;;;2.90;;
1206;SDS011;593;53.184;8.216;2023-07-29T09:22:53;2.80;;;2.60;;
1206;SDS011;593;53.184;8.216;2023-07-29T09:25:26;2.93;;;2.73;;
1206;SDS011;593;53.184;8.216;2023-07-29T09:27:57;2.87;;;2.50;;
1206;SDS011;593;53.184;8.216;2023-07-29T09:30:25;2.87;;;2.40;;
1206;SDS011;593;53.184;8.216;2023-07-29T09:32:57;4.07;;;2.17;;
1206;SDS011;593;53.184;8.216;2023-07-29T09:35:23;1.97;;;1.87;;
1206;SDS011;593;53.184;8.216;2023-07-29T09:37:51;3.17;;;2.93;;
1206;SDS011;593;53.184;8.216;2023-07-29T09:40:17;2.50;;;2.40;;
1206;SDS011;593;53.184;8.216;2023-07-29T09:42:53;2.30;;;2.20;;
1206;SDS011;593;53.184;8.216;2023-07-29T09:45:22;4.07;;;2.60;;
1206;SDS011;593;53.184;8.216;2023-07-29T09:47:56;2.53;;;2.43;;
1206;SDS011;593;53.184;8.216;2023-07-29T09:50:25;2.70;;;2.50;;
1206;SDS011;593;53.184;8.216;2023-07-29T09:52:52;1.70;;;1.60;;
1206;SDS011;593;53.184;8.216;2023-07-29T09:55:19;2.60;;;1.60;;
1206;SDS011;593;53.184;8.216;2023-07-29T09:57:46;2.43;;;2.33;;
1206;SDS011;593;53.184;8.216;2023-07-29T10:00:12;3.33;;;2.30;;
1206;SDS011;593;53.184;8.216;2023-07-29T10:02:38;2.53;;;2.30;;
1206;SDS011;593;53.184;8.216;2023-07-29T10:05:05;3.07;;;1.90;;
1206;SDS011;593;53.184;8.216;2023-07-29T10:07:31;1.63;;;1.53;;
1206;SDS011;593;53.184;8.216;2023-07-29T10:09:58;2.17;;;1.73;;
1206;SDS011;593;53.184;8.216;2023-07-29T10:12:24;1.60;;;1.50;;
1206;SDS011;593;53.184;8.216;2023-07-29T10:14:50;1.67;;;1.57;;
1206;SDS011;593;53.184;8.216;2023-07-29T10:17:16;2.67;;;1.70;;
1206;SDS011;593;53.184;8.216;2023-07-29T10:19:41;1.27;;;1.17;;
1206;SDS011;593;53.184;8.216;2023-07-29T10:22:09;2.13;;;2.03;;
1206;SDS011;593;53.184;8.216;2023-07-29T10:24:36;1.93;;;1.40;;
1206;SDS011;593;53.184;8.216;2023-07-29T10:27:06;3.13;;;1.93;;
1206;SDS011;593;53.184;8.216;2023-07-29T10:29:38;1.67;;;1.57;;
1206;SDS011;593;53.184;8.216;2023-07-29T10:32:07;2.10;;;2.00;;
1206;SDS011;593;53.184;8.216;2023-07-29T10:34:36;1.67;;;1.57;;
1206;SDS011;593;53.184;8.216;2023-07-29T10:37:02;1.87;;;1.77;;
1206;SDS011;593;53.184;8.216;2023-07-29T10:39:27;1.57;;;1.47;;
1206;SDS011;593;53.184;8.216;2023-07-29T10:41:58;2.03;;;1.87;;
1206;SDS011;593;53.184;8.216;2023-07-29T10:45:09;2.00;;;1.80;;
1206;SDS011;593;53.184;8.216;2023-07-29T10:47:21;1.83;;;1.73;;
1206;SDS011;593;53.184;8.216;2023-07-29T10:49:49;3.30;;;2.00;;
1206;SDS011;593;53.184;8.216;2023-07-29T10:52:29;2.23;;;2.13;;
1206;SDS011;593;53.184;8.216;2023-07-29T10:55:01;1.90;;;1.80;;
1206;SDS011;593;53.184;8.216;2023-07-29T10:57:36;2.30;;;2.10;;
1206;SDS011;593;53.184;8.216;2023-07-29T11:00:06;2.27;;;2.17;;
1206;SDS011;593;53.184;8.216;2023-07-29T11:02:35;1.93;;;1.73;;
1206;SDS011;593;53.184;8.216;2023-07-29T11:05:08;1.97;;;1.77;;
1206;SDS011;593;53.184;8.216;2023-07-29T11:07:44;2.00;;;1.90;;
1206;SDS011;593;53.184;8.216;2023-07-29T11:10:11;1.80;;;1.70;;
1206;SDS011;593;53.184;8.216;2023-07-29T11:20:16;2.23;;;2.07;;
1206;SDS011;593;53.184;8.216;2023-07-29T11:22:43;1.80;;;1.70;;
1206;SDS011;593;53.184;8.216;2023-07-29T11:25:10;1.87;;;1.77;;
1206;SDS011;593;53.184;8.216;2023-07-29T11:27:37;2.00;;;1.80;;
1206;SDS011;593;53.184;8.216;2023-07-29T11:30:04;2.03;;;1.93;;
1206;SDS011;593;53.184;8.216;2023-07-29T11:32:35;1.77;;;1.67;;
1206;SDS011;593;53.184;8.216;2023-07-29T11:35:02;1.97;;;1.87;;
1206;SDS011;593;53.184;8.216;2023-07-29T11:37:41;1.60;;;1.50;;
1206;SDS011;593;53.184;8.216;2023-07-29T11:40:07;1.87;;;1.77;;
1206;SDS011;593;53.184;8.216;2023-07-29T11:42:35;1.63;;;1.53;;
1206;SDS011;593;53.184;8.216;2023-07-29T11:45:02;1.60;;;1.50;;
1206;SDS011;593;53.184;8.216;2023-07-29T11:47:28;4.77;;;1.50;;
1206;SDS011;593;53.184;8.216;2023-07-29T11:49:54;2.23;;;2.13;;
1206;SDS011;593;53.184;8.216;2023-07-29T11:52:25;2.23;;;1.80;;
1206;SDS011;593;53.184;8.216;2023-07-29T11:54:51;1.77;;;1.67;;
1206;SDS011;593;53.184;8.216;2023-07-29T11:57:18;2.17;;;2.07;;
1206;SDS011;593;53.184;8.216;2023-07-29T11:59:43;2.00;;;1.80;;
1206;SDS011;593;53.184;8.216;2023-07-29T12:02:10;1.80;;;1.70;;
1206;SDS011;593;53.184;8.216;2023-07-29T12:04:37;1.27;;;1.17;;
1206;SDS011;593;53.184;8.216;2023-07-29T12:07:05;1.63;;;1.50;;
1206;SDS011;593;53.184;8.216;2023-07-29T12:09:31;1.90;;;1.80;;
1206;SDS011;593;53.184;8.216;2023-07-29T12:11:56;1.30;;;1.20;;
1206;SDS011;593;53.184;8.216;2023-07-29T12:14:25;2.20;;;1.30;;
1206;SDS011;593;53.184;8.216;2023-07-29T12:16:52;2.00;;;1.90;;
1206;SDS011;593;53.184;8.216;2023-07-29T12:19:18;1.40;;;1.30;;
1206;SDS011;593;53.184;8.216;2023-07-29T12:21:44;1.60;;;1.50;;
1206;SDS011;593;53.184;8.216;2023-07-29T12:24:13;2.80;;;1.67;;
1206;SDS011;593;53.184;8.216;2023-07-29T12:26:40;3.77;;;1.70;;
1206;SDS011;593;53.184;8.216;2023-07-29T12:29:13;1.73;;;1.40;;
1206;SDS011;593;53.184;8.216;2023-07-29T12:31:40;2.33;;;1.47;;
1206;SDS011;593;53.184;8.216;2023-07-29T12:34:06;1.40;;;1.30;;
1206;SDS011;593;53.184;8.216;2023-07-29T12:36:53;1.67;;;1.40;;
1206;SDS011;593;53.184;8.216;2023-07-29T12:39:22;1.60;;;1.50;;
1206;SDS011;593;53.184;8.216;2023-07-29T12:41:56;1.80;;;1.70;;
1206;SDS011;593;53.184;8.216;2023-07-29T12:44:23;1.50;;;1.40;;
1206;SDS011;593;53.184;8.216;2023-07-29T12:46:50;2.27;;;1.40;;
1206;SDS011;593;53.184;8.216;2023-07-29T12:49:17;1.63;;;1.53;;
1206;SDS011;593;53.184;8.216;2023-07-29T12:51:43;2.30;;;1.60;;
1206;SDS011;593;53.184;8.216;2023-07-29T12:54:09;2.37;;;1.50;;
1206;SDS011;593;53.184;8.216;2023-07-29T12:56:34;1.53;;;1.43;;
1206;SDS011;593;53.184;8.216;2023-07-29T12:59:00;1.40;;;1.30;;
1206;SDS011;593;53.184;8.216;2023-07-29T13:01:27;1.33;;;1.20;;
1206;SDS011;593;53.184;8.216;2023-07-29T13:03:53;1.73;;;1.63;;
1206;SDS011;593;53.184;8.216;2023-07-29T13:06:19;1.67;;;1.50;;
1206;SDS011;593;53.184;8.216;2023-07-29T13:08:45;1.77;;;1.67;;
1206;SDS011;593;53.184;8.216;2023-07-29T13:11:11;1.60;;;1.50;;
1206;SDS011;593;53.184;8.216;2023-07-29T13:13:37;3.13;;;1.10;;
1206;SDS011;593;53.184;8.216;2023-07-29T13:16:02;2.53;;;1.10;;
1206;SDS011;593;53.184;8.216;2023-07-29T13:18:28;1.70;;;1.13;;
1206;SDS011;593;53.184;8.216;2023-07-29T13:20:54;1.10;;;1.00;;
1206;SDS011;593;53.184;8.216;2023-07-29T13:23:19;3.60;;;1.43;;
1206;SDS011;593;53.184;8.216;2023-07-29T13:25:45;1.37;;;1.00;;
1206;SDS011;593;53.184;8.216;2023-07-29T13:28:11;1.50;;;1.40;;
1206;SDS011;593;53.184;8.216;2023-07-29T13:30:38;1.87;;;1.00;;
1206;SDS011;593;53.184;8.216;2023-07-29T13:33:03;1.80;;;1.50;;
1206;SDS011;593;53.184;8.216;2023-07-29T13:35:30;1.47;;;1.10;;
1206;SDS011;593;53.184;8.216;2023-07-29T13:37:55;1.20;;;1.10;;
1206;SDS011;593;53.184;8.216;2023-07-29T13:40:21;1.77;;;1.67;;
1206;SDS011;593;53.184;8.216;2023-07-29T13:42:46;3.67;;;1.40;;
1206;SDS011;593;53.184;8.216;2023-07-29T13:45:11;2.80;;;1.63;;
1206;SDS011;593;53.184;8.216;2023-07-29T13:47:37;1.30;;;1.20;;
1206;SDS011;593;53.184;8.216;2023-07-29T13:50:02;2.40;;;1.57;;
1206;SDS011;593;53.184;8.216;2023-07-29T13:52:28;1.63;;;1.53;;
1206;SDS011;593;53.184;8.216;2023-07-29T13:54:54;1.40;;;1.30;;
1206;SDS011;593;53.184;8.216;2023-07-29T13:57:19;1.93;;;1.47;;
1206;SDS011;593;53.184;8.216;2023-07-29T13:59:44;1.53;;;1.23;;
1206;SDS011;593;53.184;8.216;2023-07-29T14:02:10;2.13;;;1.40;;
1206;SDS011;593;53.184;8.216;2023-07-29T14:04:35;1.57;;;1.47;;
1206;SDS011;593;53.184;8.216;2023-07-29T14:07:00;2.33;;;1.67;;
1206;SDS011;593;53.184;8.216;2023-07-29T14:09:26;2.00;;;1.90;;
1206;SDS011;593;53.184;8.216;2023-07-29T14:11:53;2.60;;;2.40;;
1206;SDS011;593;53.184;8.216;2023-07-29T14:14:19;2.70;;;2.10;;
1206;SDS011;593;53.184;8.216;2023-07-29T14:16:45;1.80;;;1.70;;
1206;SDS011;593;53.184;8.216;2023-07-29T14:19:11;2.70;;;2.40;;
1206;SDS011;593;53.184;8.216;2023-07-29T14:21:36;3.07;;;2.87;;
1206;SDS011;593;53.184;8.216;2023-07-29T14:24:01;2.67;;;2.47;;
1206;SDS011;593;53.184;8.216;2023-07-29T14:26:27;1.90;;;1.80;;
1206;SDS011;593;53.184;8.216;2023-07-29T14:28:52;2.70;;;2.57;;
1206;SDS011;593;53.184;8.216;2023-07-29T14:31:17;2.30;;;2.20;;
1206;SDS011;593;53.184;8.216;2023-07-29T14:33:43;2.50;;;2.30;;
1206;SDS011;593;53.184;8.216;2023-07-29T14:36:09;2.30;;;2.20;;
1206;SDS011;593;53.184;8.216;2023-07-29T14:38:35;3.13;;;2.93;;
1206;SDS011;593;53.184;8.216;2023-07-29T14:41:01;3.20;;;3.00;;
1206;SDS011;593;53.184;8.216;2023-07-29T14:43:26;2.80;;;2.30;;
1206;SDS011;593;53.184;8.216;2023-07-29T14:45:52;2.30;;;2.20;;
1206;SDS011;593;53.184;8.216;2023-07-29T14:48:17;2.90;;;2.30;;
1206;SDS011;593;53.184;8.216;2023-07-29T14:50:42;1.90;;;1.70;;
1206;SDS011;593;53.184;8.216;2023-07-29T14:53:09;1.60;;;1.50;;
1206;SDS011;593;53.184;8.216;2023-07-29T14:55:34;2.20;;;2.00;;
1206;SDS011;593;53.184;8.216;2023-07-29T14:58:00;2.47;;;1.97;;
1206;SDS011;593;53.184;8.216;2023-07-29T15:00:25;2.40;;;1.87;;
1206;SDS011;593;53.184;8.216;2023-07-29T15:02:50;2.80;;;2.00;;
1206;SDS011;593;53.184;8.216;2023-07-29T15:05:16;3.80;;;2.17;;
1206;SDS011;593;53.184;8.216;2023-07-29T15:07:41;1.70;;;1.40;;
1206;SDS011;593;53.184;8.216;2023-07-29T15:10:07;2.20;;;2.00;;
1206;SDS011;593;53.184;8.216;2023-07-29T15:12:32;2.37;;;1.93;;
1206;SDS011;593;53.184;8.216;2023-07-29T15:14:57;2.10;;;1.90;;
1206;SDS011;593;53.184;8.216;2023-07-29T15:17:23;1.50;;;1.40;;
1206;SDS011;593;53.184;8.216;2023-07-29T15:19:48;1.63;;;1.53;;
1206;SDS011;593;53.184;8.216;2023-07-29T15:22:15;3.10;;;1.90;;
1206;SDS011;593;53.184;8.216;2023-07-29T15:24:41;1.77;;;1.67;;
1206;SDS011;593;53.184;8.216;2023-07-29T15:27:08;1.30;;;1.13;;
1206;SDS011;593;53.184;8.216;2023-07-29T15:29:34;2.13;;;1.27;;
1206;SDS011;593;53.184;8.216;2023-07-29T15:31:59;1.20;;;1.10;;
1206;SDS011;593;53.184;8.216;2023-07-29T15:34:25;2.30;;;1.00;;
1206;SDS011;593;53.184;8.216;2023-07-29T15:36:50;2.70;;;1.13;;
1206;SDS011;593;53.184;8.216;2023-07-29T15:39:16;1.50;;;1.20;;
1206;SDS011;593;53.184;8.216;2023-07-29T15:41:41;1.27;;;1.00;;
1206;SDS011;593;53.184;8.216;2023-07-29T15:44:07;1.90;;;1.50;;